Time;durP1;ratioP1;P1;durP2;ratioP2;P2;SDS_P1;SDS_P2;PMS_P1;PMS_P2;Temp;Humidity;BMP_temperature;BMP_pressure;BME280_temperature;BME280_humidity;BME280_pressure;Samples;Min_cycle;Max_cycle;Signal;HPM_P1;HPM_P2
2023/09/10 00:01:02;;;;;;;10.10;9.20;;;18.30;99.90;;;;;;5089305;28;20031;-83
2023/09/10 00:03:28;;;;;;;9.35;8.55;;;18.30;99.90;;;;;;5089050;28;20020;-83
2023/09/10 00:05:54;;;;;;;9.40;8.50;;;18.30;99.90;;;;;;5089420;28;20035;-82
2023/09/10 00:08:20;;;;;;;9.55;8.65;;;18.40;99.90;;;;;;5071199;28;20028;-84
2023/09/10 00:10:46;;;;;;;9.02;8.32;;;18.30;99.90;;;;;;5083930;28;20038;-83
2023/09/10 00:13:12;;;;;;;9.50;8.63;;;18.30;99.90;;;;;;5088784;28;20052;-83
2023/09/10 00:15:38;;;;;;;9.10;8.30;;;18.20;99.90;;;;;;5089989;28;20028;-83
2023/09/10 00:18:04;;;;;;;8.77;8.07;;;18.20;99.90;;;;;;5053919;28;20028;-84
2023/09/10 00:20:29;;;;;;;8.93;8.13;;;18.20;99.90;;;;;;5086657;28;20074;-83
2023/09/10 00:22:56;;;;;;;9.18;8.27;;;18.20;99.90;;;;;;5089259;28;20032;-85
2023/09/10 00:25:22;;;;;;;8.75;8.00;;;18.20;99.90;;;;;;5083387;28;20028;-85
2023/09/10 00:27:47;;;;;;;8.95;8.10;;;18.20;99.90;;;;;;5068085;28;20537;-84
2023/09/10 00:30:13;;;;;;;9.82;8.93;;;18.10;99.90;;;;;;5052989;28;20089;-82
2023/09/10 00:32:39;;;;;;;10.38;9.38;;;18.10;99.90;;;;;;5070960;28;20091;-83
2023/09/10 00:35:05;;;;;;;10.15;9.18;;;18.10;99.90;;;;;;5087329;28;20090;-82
2023/09/10 00:37:31;;;;;;;9.82;8.93;;;18.10;99.90;;;;;;5086813;28;20085;-82
2023/09/10 00:39:56;;;;;;;10.02;9.05;;;18.00;99.90;;;;;;5067348;28;20031;-83
2023/09/10 00:42:23;;;;;;;9.55;8.63;;;18.00;99.90;;;;;;5085673;28;20111;-83
2023/09/10 00:44:48;;;;;;;9.57;8.70;;;18.00;99.90;;;;;;5088925;28;20475;-83
2023/09/10 00:47:15;;;;;;;9.85;8.95;;;18.00;99.90;;;;;;5070731;28;20048;-83
2023/09/10 00:49:41;;;;;;;10.50;8.50;;;18.00;99.90;;;;;;5068188;28;20043;-83
2023/09/10 00:52:07;;;;;;;9.95;8.65;;;17.90;99.90;;;;;;5087906;28;20024;-83
2023/09/10 00:54:33;;;;;;;9.88;8.88;;;17.90;99.90;;;;;;5053654;28;20036;-84
2023/09/10 00:57:03;;;;;;;10.23;9.32;;;17.90;99.90;;;;;;5056316;28;20361;-84
2023/09/10 00:59:30;;;;;;;10.75;9.75;;;17.80;99.90;;;;;;5068038;28;20043;-83
2023/09/10 01:01:57;;;;;;;9.68;8.73;;;17.90;99.90;;;;;;5067523;28;20036;-82
2023/09/10 01:04:23;;;;;;;9.15;8.25;;;17.80;99.90;;;;;;5070024;28;20624;-82
2023/09/10 01:06:51;;;;;;;9.25;8.45;;;17.80;99.90;;;;;;5065441;28;20028;-83
2023/09/10 01:09:17;;;;;;;9.10;8.30;;;17.80;99.90;;;;;;5070291;28;20036;-83
2023/09/10 01:11:55;;;;;;;9.65;8.75;;;17.80;99.90;;;;;;5067910;28;20468;-83
2023/09/10 01:14:58;;;;;;;10.10;9.10;;;17.80;99.90;;;;;;5064362;28;20074;-81
2023/09/10 01:17:36;;;;;;;8.63;7.93;;;17.70;99.90;;;;;;5065783;28;20030;-81
2023/09/10 01:20:26;;;;;;;9.63;8.73;;;17.70;99.90;;;;;;5075182;28;20055;-83
2023/09/10 01:23:18;;;;;;;8.43;7.55;;;17.80;99.90;;;;;;5065483;28;20029;-84
2023/09/10 01:25:44;;;;;;;8.30;7.50;;;17.70;99.90;;;;;;5087485;28;20024;-83
2023/09/10 01:28:10;;;;;;;8.13;7.53;;;17.70;99.90;;;;;;5088430;28;20042;-83
2023/09/10 01:30:36;;;;;;;9.30;8.45;;;17.60;99.90;;;;;;5086494;28;20401;-84
2023/09/10 01:33:11;;;;;;;9.88;8.88;;;17.60;99.90;;;;;;5067050;28;20187;-82
2023/09/10 01:35:51;;;;;;;8.77;7.97;;;17.60;99.90;;;;;;5051391;28;20115;-81
2023/09/10 01:38:40;;;;;;;9.63;8.73;;;17.50;99.90;;;;;;5081137;28;20020;-82
2023/09/10 01:41:26;;;;;;;9.63;8.77;;;17.50;99.90;;;;;;5049735;28;20028;-83
2023/09/10 01:43:53;;;;;;;9.30;8.48;;;17.50;99.90;;;;;;5065878;28;20020;-83
2023/09/10 01:46:20;;;;;;;9.15;8.35;;;17.50;99.90;;;;;;5066163;28;20448;-83
2023/09/10 01:48:46;;;;;;;9.07;8.27;;;17.50;99.90;;;;;;5070511;28;20040;-83
2023/09/10 01:51:12;;;;;;;9.95;9.05;;;17.50;99.90;;;;;;5077265;28;20043;-83
2023/09/10 01:53:38;;;;;;;10.02;9.20;;;17.60;99.90;;;;;;5075949;28;20040;-87
2023/09/10 01:56:04;;;;;;;10.63;9.52;;;17.50;99.90;;;;;;5066800;28;20024;-83
2023/09/10 01:58:29;;;;;;;10.30;9.40;;;17.50;99.90;;;;;;5070182;28;20027;-83
2023/09/10 02:00:55;;;;;;;10.00;9.13;;;17.50;99.90;;;;;;5068032;28;20024;-81
2023/09/10 02:03:21;;;;;;;9.40;8.50;;;17.60;99.90;;;;;;5070954;28;20024;-83
2023/09/10 02:05:47;;;;;;;10.18;9.23;;;17.60;99.90;;;;;;5065109;28;20048;-85
2023/09/10 02:08:14;;;;;;;10.82;9.82;;;17.70;99.90;;;;;;5056703;28;20031;-83
2023/09/10 02:10:40;;;;;;;10.77;9.68;;;17.70;99.90;;;;;;5056950;28;20039;-82
2023/09/10 02:13:06;;;;;;;10.05;9.15;;;17.70;99.90;;;;;;5091391;28;20423;-82
2023/09/10 02:15:31;;;;;;;9.23;8.35;;;17.70;99.90;;;;;;5071262;28;20028;-84
2023/09/10 02:17:57;;;;;;;9.40;8.63;;;17.70;99.90;;;;;;5072428;28;20028;-83
2023/09/10 02:20:23;;;;;;;9.55;8.68;;;17.70;99.90;;;;;;5069372;28;20019;-81
2023/09/10 02:22:48;;;;;;;11.25;10.07;;;17.70;99.90;;;;;;5091263;28;20146;-83
2023/09/10 02:25:14;;;;;;;10.88;9.85;;;17.70;99.90;;;;;;5073787;28;20020;-82
2023/09/10 02:27:40;;;;;;;10.90;9.90;;;17.60;99.90;;;;;;5091496;28;20088;-82
2023/09/10 02:30:07;;;;;;;10.48;9.55;;;17.60;99.90;;;;;;5068076;28;20477;-83
2023/09/10 02:32:34;;;;;;;12.10;11.00;;;17.50;99.90;;;;;;5073474;28;20467;-81
2023/09/10 02:35:00;;;;;;;11.35;10.35;;;17.50;99.90;;;;;;5088574;28;20476;-82
2023/09/10 02:37:25;;;;;;;12.75;10.88;;;17.50;99.90;;;;;;5072591;28;20114;-81
2023/09/10 02:39:51;;;;;;;11.13;10.18;;;17.50;99.90;;;;;;5073070;28;20414;-86
2023/09/10 02:42:17;;;;;;;11.70;10.68;;;17.50;99.90;;;;;;5073068;28;20019;-83
2023/09/10 02:44:43;;;;;;;11.00;10.10;;;17.50;99.90;;;;;;5068769;28;20028;-82
2023/09/10 02:47:09;;;;;;;10.98;9.98;;;17.50;99.90;;;;;;5064909;28;20052;-81
2023/09/10 02:49:35;;;;;;;12.35;11.07;;;17.50;99.90;;;;;;5072556;28;20163;-82
2023/09/10 02:52:01;;;;;;;10.90;9.80;;;17.40;99.90;;;;;;5056089;28;20029;-83
2023/09/10 02:54:28;;;;;;;11.15;10.18;;;17.40;99.90;;;;;;5077243;28;20032;-81
2023/09/10 02:56:54;;;;;;;11.85;10.75;;;17.40;99.90;;;;;;5055611;28;20638;-84
2023/09/10 02:59:25;;;;;;;13.60;11.25;;;17.40;99.90;;;;;;5072184;28;20088;-82
2023/09/10 03:01:51;;;;;;;11.68;10.57;;;17.40;99.90;;;;;;5081923;28;20391;-83
2023/09/10 03:04:17;;;;;;;11.85;10.85;;;17.30;99.90;;;;;;5069761;28;20031;-83
2023/09/10 03:06:48;;;;;;;11.77;10.75;;;17.30;99.90;;;;;;5072755;28;20020;-82
2023/09/10 03:09:15;;;;;;;11.93;10.77;;;17.20;99.90;;;;;;5068088;28;20032;-82
2023/09/10 03:11:44;;;;;;;10.90;9.98;;;17.30;99.90;;;;;;5061468;28;20035;-82
2023/09/10 03:14:10;;;;;;;11.13;10.13;;;17.30;99.90;;;;;;5087405;28;20109;-82
2023/09/10 03:16:38;;;;;;;12.23;11.13;;;17.30;99.90;;;;;;5072983;28;20611;-83
2023/09/10 03:19:05;;;;;;;10.70;9.80;;;17.30;99.90;;;;;;5067438;28;20033;-82
2023/09/10 03:21:31;;;;;;;12.38;11.27;;;17.30;99.90;;;;;;5067428;28;20033;-83
2023/09/10 03:23:57;;;;;;;11.68;10.65;;;17.30;99.90;;;;;;5055203;28;20119;-87
2023/09/10 03:26:24;;;;;;;11.18;10.25;;;17.30;99.90;;;;;;5069970;28;20024;-83
2023/09/10 03:28:50;;;;;;;11.65;10.65;;;17.30;99.90;;;;;;5068897;28;20066;-83
2023/09/10 03:31:15;;;;;;;11.18;10.23;;;17.30;99.90;;;;;;5053805;28;20036;-83
2023/09/10 03:33:41;;;;;;;11.73;10.75;;;17.20;99.90;;;;;;5090648;28;20380;-82
2023/09/10 03:36:09;;;;;;;12.18;10.93;;;17.20;99.90;;;;;;5052591;28;20090;-83
2023/09/10 03:38:36;;;;;;;11.60;10.60;;;17.20;99.90;;;;;;5069592;28;20023;-83
2023/09/10 03:41:01;;;;;;;11.05;10.15;;;17.10;99.90;;;;;;5066775;28;20024;-83
2023/09/10 03:43:28;;;;;;;11.23;10.27;;;17.20;99.90;;;;;;5055398;28;20498;-81
2023/09/10 03:45:54;;;;;;;12.40;11.32;;;17.20;99.90;;;;;;5062306;28;20075;-83
2023/09/10 03:48:21;;;;;;;12.05;10.95;;;17.20;99.90;;;;;;5071763;28;20063;-83
2023/09/10 03:50:46;;;;;;;12.23;11.18;;;17.20;99.90;;;;;;5071730;28;20090;-82
2023/09/10 03:53:12;;;;;;;12.07;11.00;;;17.20;99.90;;;;;;5089773;28;20016;-82
2023/09/10 03:55:39;;;;;;;13.82;12.52;;;17.20;99.90;;;;;;5063960;28;20024;-83
2023/09/10 03:58:05;;;;;;;12.20;11.10;;;17.20;99.90;;;;;;5066102;28;20111;-83
2023/09/10 04:00:33;;;;;;;11.40;10.27;;;17.30;99.90;;;;;;5061682;28;20519;-83
2023/09/10 04:02:59;;;;;;;12.05;10.95;;;17.30;99.90;;;;;;5061029;28;20035;-83
2023/09/10 04:05:25;;;;;;;12.23;11.13;;;17.30;99.90;;;;;;5068047;28;20027;-85
2023/09/10 04:07:51;;;;;;;12.25;11.15;;;17.30;99.90;;;;;;5055317;28;20080;-83
2023/09/10 04:10:17;;;;;;;12.45;11.35;;;17.20;99.90;;;;;;5060476;28;20081;-83
2023/09/10 04:12:42;;;;;;;11.55;10.50;;;17.20;99.90;;;;;;5067090;28;20480;-85
2023/09/10 04:15:09;;;;;;;12.57;11.52;;;17.20;99.90;;;;;;5089176;28;20027;-82
2023/09/10 04:17:34;;;;;;;12.98;11.68;;;17.30;99.90;;;;;;5070202;28;20031;-83
2023/09/10 04:20:00;;;;;;;12.73;11.63;;;17.20;99.90;;;;;;5067873;28;20032;-82
2023/09/10 04:22:28;;;;;;;12.00;10.80;;;17.20;99.90;;;;;;5055582;28;20047;-83
2023/09/10 04:24:54;;;;;;;11.77;10.68;;;17.10;99.90;;;;;;5057576;28;20124;-83
2023/09/10 04:27:20;;;;;;;11.82;10.63;;;17.10;99.90;;;;;;5066838;28;20099;-83
2023/09/10 04:29:45;;;;;;;12.05;10.98;;;17.10;99.90;;;;;;5071313;28;20134;-83
2023/09/10 04:32:12;;;;;;;12.50;11.30;;;17.10;99.90;;;;;;5070363;28;20536;-83
2023/09/10 04:34:37;;;;;;;11.93;10.85;;;17.10;99.90;;;;;;5088958;28;20115;-84
2023/09/10 04:37:04;;;;;;;11.80;10.80;;;17.10;99.90;;;;;;5054324;28;20047;-83
2023/09/10 04:39:30;;;;;;;11.23;10.23;;;17.00;99.90;;;;;;5051631;28;20409;-88
2023/09/10 04:41:57;;;;;;;12.40;11.30;;;17.00;99.90;;;;;;5069815;28;20111;-84
2023/09/10 04:44:23;;;;;;;12.90;11.77;;;17.10;99.90;;;;;;5071289;28;20492;-85
2023/09/10 04:46:48;;;;;;;12.23;11.18;;;17.00;99.90;;;;;;5070945;28;20046;-83
2023/09/10 04:49:14;;;;;;;13.18;11.98;;;17.00;99.90;;;;;;5054321;28;20051;-84
2023/09/10 04:51:40;;;;;;;12.77;11.55;;;17.10;99.90;;;;;;5051539;28;20532;-82
2023/09/10 04:54:06;;;;;;;12.55;11.40;;;17.00;99.90;;;;;;5066369;28;20030;-83
2023/09/10 04:56:31;;;;;;;13.68;12.40;;;17.00;99.90;;;;;;5063007;28;20107;-83
2023/09/10 04:58:57;;;;;;;12.25;11.25;;;17.00;99.90;;;;;;5062208;28;20473;-84
2023/09/10 05:01:23;;;;;;;12.98;11.88;;;16.90;99.90;;;;;;5070988;28;20020;-83
2023/09/10 05:03:49;;;;;;;13.07;11.77;;;17.00;99.90;;;;;;5066876;28;20021;-82
2023/09/10 05:06:15;;;;;;;13.25;12.05;;;17.00;99.90;;;;;;5060578;28;20031;-81
2023/09/10 05:08:42;;;;;;;14.15;12.88;;;17.00;99.90;;;;;;5067216;28;20385;-82
2023/09/10 05:11:08;;;;;;;13.13;11.95;;;17.00;99.90;;;;;;5069235;28;20024;-83
2023/09/10 05:13:34;;;;;;;11.52;10.52;;;17.00;99.90;;;;;;5088917;28;20036;-86
2023/09/10 05:16:00;;;;;;;12.30;11.18;;;17.00;99.90;;;;;;5055717;28;20035;-83
2023/09/10 05:18:26;;;;;;;12.15;11.13;;;17.10;99.90;;;;;;5051769;28;20233;-83
2023/09/10 05:20:54;;;;;;;11.93;10.93;;;17.00;99.90;;;;;;5049697;28;20020;-83
2023/09/10 05:23:23;;;;;;;13.00;11.80;;;17.10;99.90;;;;;;5086820;28;20038;-83
2023/09/10 05:25:50;;;;;;;11.68;10.57;;;17.00;99.90;;;;;;5069165;28;20447;-83
2023/09/10 05:28:17;;;;;;;12.00;10.90;;;17.00;99.90;;;;;;5069278;28;20035;-83
2023/09/10 05:30:43;;;;;;;11.85;10.80;;;17.10;99.90;;;;;;5060029;28;20043;-83
2023/09/10 05:33:09;;;;;;;11.50;10.48;;;17.10;99.90;;;;;;5069213;28;20024;-82
2023/09/10 05:35:35;;;;;;;11.80;10.77;;;17.10;99.90;;;;;;5068505;28;20484;-83
2023/09/10 05:38:01;;;;;;;13.20;11.73;;;17.10;99.90;;;;;;5068210;28;20028;-82
2023/09/10 05:40:27;;;;;;;12.30;11.20;;;17.20;99.90;;;;;;5063550;28;20365;-83
2023/09/10 05:42:53;;;;;;;13.18;12.00;;;17.20;99.90;;;;;;5054713;28;20046;-85
2023/09/10 05:45:19;;;;;;;12.50;11.40;;;17.20;99.90;;;;;;5054651;28;20263;-83
2023/09/10 05:47:45;;;;;;;11.38;10.38;;;17.20;99.90;;;;;;5055535;28;20031;-86
2023/09/10 05:50:11;;;;;;;12.45;11.25;;;17.30;99.90;;;;;;5068711;28;20036;-84
2023/09/10 05:52:37;;;;;;;13.45;12.10;;;17.30;99.90;;;;;;5066722;28;20020;-83
2023/09/10 05:55:03;;;;;;;12.63;11.43;;;17.40;99.90;;;;;;5084916;28;20032;-83
2023/09/10 05:57:29;;;;;;;13.48;12.27;;;17.50;99.90;;;;;;5089455;28;20020;-84
2023/09/10 05:59:55;;;;;;;14.05;12.75;;;17.50;99.90;;;;;;5070840;28;20123;-83
2023/09/10 06:02:21;;;;;;;13.27;12.00;;;17.60;99.90;;;;;;5089864;28;20032;-82
2023/09/10 06:04:46;;;;;;;14.13;12.52;;;17.60;99.90;;;;;;5069687;28;20035;-83
2023/09/10 06:07:12;;;;;;;14.73;13.25;;;17.70;99.90;;;;;;5088316;28;20058;-85
2023/09/10 06:09:38;;;;;;;13.82;12.65;;;17.80;99.90;;;;;;5068165;28;20302;-83
2023/09/10 06:12:04;;;;;;;13.88;12.57;;;17.80;99.90;;;;;;5072148;28;20050;-83
2023/09/10 06:14:33;;;;;;;12.73;11.63;;;17.90;99.90;;;;;;5052188;28;20032;-83
2023/09/10 06:17:00;;;;;;;13.48;12.30;;;18.00;99.90;;;;;;5066806;28;20028;-83
2023/09/10 06:19:25;;;;;;;12.30;11.15;;;18.00;99.90;;;;;;5056105;28;20035;-83
2023/09/10 06:21:51;;;;;;;14.32;13.02;;;18.20;99.90;;;;;;5072332;28;20486;-83
2023/09/10 06:24:17;;;;;;;15.10;13.57;;;18.30;99.90;;;;;;5055874;28;20043;-84
2023/09/10 06:26:43;;;;;;;15.77;14.27;;;18.50;99.90;;;;;;5073299;28;20020;-84
2023/09/10 06:29:09;;;;;;;18.58;16.65;;;18.70;99.90;;;;;;5071916;28;20040;-85
2023/09/10 06:31:34;;;;;;;17.52;15.80;;;18.80;99.90;;;;;;5069376;28;20472;-84
2023/09/10 06:34:00;;;;;;;17.33;15.60;;;18.90;99.90;;;;;;5061128;28;20060;-83
2023/09/10 06:36:26;;;;;;;15.82;14.40;;;19.00;99.90;;;;;;5063017;28;20036;-83
2023/09/10 06:38:52;;;;;;;16.85;15.27;;;19.20;99.90;;;;;;5071873;28;20048;-86
2023/09/10 06:41:18;;;;;;;15.68;14.27;;;19.30;99.90;;;;;;5070350;28;20081;-86
2023/09/10 06:43:44;;;;;;;16.70;15.15;;;19.40;99.90;;;;;;5072616;28;20032;-83
2023/09/10 06:46:14;;;;;;;17.70;15.98;;;19.60;99.90;;;;;;5068299;28;20044;-83
2023/09/10 06:48:40;;;;;;;17.15;15.52;;;19.70;99.90;;;;;;5059983;28;20051;-84
2023/09/10 06:51:06;;;;;;;17.20;15.60;;;19.80;99.90;;;;;;5062829;28;20028;-86
2023/09/10 06:53:32;;;;;;;16.02;14.57;;;20.00;99.90;;;;;;5072900;28;20099;-86
2023/09/10 06:55:57;;;;;;;15.60;14.13;;;20.20;99.90;;;;;;5072386;28;20039;-83
2023/09/10 06:58:23;;;;;;;15.60;14.20;;;20.30;99.90;;;;;;5072080;28;20035;-87
2023/09/10 07:00:49;;;;;;;15.88;14.38;;;20.40;99.90;;;;;;5056190;28;20493;-83
2023/09/10 07:03:15;;;;;;;17.25;15.55;;;20.60;99.90;;;;;;5060436;28;20067;-83
2023/09/10 07:05:42;;;;;;;18.33;16.60;;;20.70;99.90;;;;;;5061824;28;20024;-82
2023/09/10 07:08:13;;;;;;;17.65;15.93;;;20.90;99.90;;;;;;5059267;28;20031;-84
2023/09/10 07:10:39;;;;;;;17.63;15.85;;;21.00;99.90;;;;;;5070101;28;20060;-84
2023/09/10 07:13:06;;;;;;;20.02;18.10;;;21.10;99.90;;;;;;5063255;28;20637;-84
2023/09/10 07:15:33;;;;;;;17.90;16.27;;;21.20;99.90;;;;;;5076486;28;20035;-85
2023/09/10 07:17:58;;;;;;;18.77;16.75;;;21.40;99.90;;;;;;5088734;28;20024;-84
2023/09/10 07:20:24;;;;;;;16.90;15.30;;;21.60;99.90;;;;;;5070847;28;20031;-83
2023/09/10 07:22:50;;;;;;;17.92;16.23;;;21.60;99.90;;;;;;5066812;28;20062;-84
2023/09/10 07:25:15;;;;;;;18.20;16.55;;;21.80;99.90;;;;;;5072667;28;20095;-83
2023/09/10 07:27:41;;;;;;;18.65;16.77;;;22.00;99.90;;;;;;5062427;28;20031;-84
2023/09/10 07:30:07;;;;;;;23.15;20.75;;;22.10;99.90;;;;;;5089573;28;20488;-84
2023/09/10 07:32:33;;;;;;;20.65;18.65;;;22.30;99.90;;;;;;5090088;28;20043;-82
2023/09/10 07:34:59;;;;;;;18.30;16.42;;;22.40;99.90;;;;;;5074239;28;20480;-83
2023/09/10 07:37:24;;;;;;;19.58;17.60;;;22.50;99.90;;;;;;5090078;28;20069;-84
2023/09/10 07:39:50;;;;;;;19.15;17.30;;;22.70;99.90;;;;;;5090431;28;20480;-84
2023/09/10 07:42:16;;;;;;;19.02;17.25;;;22.80;99.90;;;;;;5089988;28;20425;-83
2023/09/10 07:44:42;;;;;;;19.05;17.23;;;23.00;99.90;;;;;;5077895;28;20075;-84
2023/09/10 07:47:08;;;;;;;19.85;17.95;;;23.10;99.90;;;;;;5066768;28;20024;-85
2023/09/10 07:49:34;;;;;;;18.50;16.75;;;23.20;99.90;;;;;;5071244;28;20115;-84
2023/09/10 07:52:03;;;;;;;21.08;18.98;;;23.40;99.90;;;;;;5071291;28;20676;-84
2023/09/10 07:54:29;;;;;;;20.80;18.70;;;23.60;99.90;;;;;;5067814;28;20024;-85
2023/09/10 07:56:55;;;;;;;19.45;17.50;;;23.70;99.90;;;;;;5089197;28;20043;-85
2023/09/10 07:59:20;;;;;;;18.40;16.52;;;23.80;99.90;;;;;;5071709;28;20024;-85
2023/09/10 08:01:46;;;;;;;20.15;18.08;;;23.90;99.90;;;;;;5071121;28;20736;-85
2023/09/10 08:04:12;;;;;;;20.33;18.23;;;24.10;99.90;;;;;;5059727;28;20028;-85
2023/09/10 08:06:38;;;;;;;20.30;18.40;;;24.30;99.90;;;;;;5064506;28;20059;-83
2023/09/10 08:09:05;;;;;;;17.15;15.63;;;24.40;99.90;;;;;;5065542;28;20063;-86
2023/09/10 08:11:31;;;;;;;17.13;15.38;;;24.50;99.90;;;;;;5052480;28;20033;-84
2023/09/10 08:13:57;;;;;;;16.88;15.27;;;24.70;99.90;;;;;;5078035;28;20052;-86
2023/09/10 08:16:22;;;;;;;19.90;17.05;;;24.70;99.90;;;;;;5072603;28;20027;-86
2023/09/10 08:18:48;;;;;;;14.98;13.45;;;24.80;99.90;;;;;;5086930;28;20058;-84
2023/09/10 08:21:14;;;;;;;16.33;14.65;;;25.00;99.90;;;;;;5070803;28;20080;-85
2023/09/10 08:23:40;;;;;;;17.73;15.93;;;25.10;99.90;;;;;;5063047;28;20031;-86
2023/09/10 08:26:05;;;;;;;15.85;14.25;;;25.20;99.90;;;;;;5054535;28;20028;-84
2023/09/10 08:28:31;;;;;;;14.67;13.33;;;25.30;99.90;;;;;;5054764;28;20039;-85
2023/09/10 08:30:57;;;;;;;14.70;13.32;;;25.40;99.90;;;;;;5055329;28;20156;-85
2023/09/10 08:33:25;;;;;;;15.70;14.30;;;25.50;99.90;;;;;;5070265;28;20056;-84
2023/09/10 08:35:52;;;;;;;16.10;14.63;;;25.60;99.90;;;;;;5063685;28;20066;-86
2023/09/10 08:38:18;;;;;;;13.38;12.15;;;25.70;99.90;;;;;;5077845;28;20488;-85
2023/09/10 08:40:59;;;;;;;14.18;12.88;;;25.90;99.90;;;;;;5069962;28;20024;-85
2023/09/10 08:43:48;;;;;;;13.38;12.10;;;26.20;99.90;;;;;;5086186;28;20488;-85
2023/09/10 08:46:14;;;;;;;17.02;15.43;;;26.20;99.90;;;;;;5066867;28;20088;-85
2023/09/10 08:48:41;;;;;;;17.77;16.08;;;26.20;99.90;;;;;;5065446;28;20629;-85
2023/09/10 08:51:10;;;;;;;15.93;14.43;;;26.20;99.90;;;;;;5086853;28;20123;-85
2023/09/10 08:53:38;;;;;;;12.77;11.60;;;26.30;99.90;;;;;;5068305;28;20472;-84
2023/09/10 08:56:05;;;;;;;14.48;13.15;;;26.60;99.90;;;;;;5051534;28;20028;-83
2023/09/10 08:58:32;;;;;;;13.48;12.27;;;26.60;99.90;;;;;;5069416;28;20032;-84
2023/09/10 09:01:00;;;;;;;14.38;12.98;;;26.70;99.90;;;;;;5069541;28;20474;-85
2023/09/10 09:03:28;;;;;;;12.35;11.25;;;26.50;99.90;;;;;;5085930;28;20449;-84
2023/09/10 09:05:57;;;;;;;12.95;11.65;;;26.60;99.90;;;;;;5064257;28;20394;-84
2023/09/10 09:08:31;;;;;;;13.25;12.05;;;26.80;99.90;;;;;;5087030;28;20030;-86
2023/09/10 09:11:03;;;;;;;15.63;14.23;;;26.90;99.90;;;;;;5066944;28;20048;-84
2023/09/10 09:13:34;;;;;;;13.32;12.13;;;27.10;99.90;;;;;;5086357;28;20040;-84
2023/09/10 09:16:02;;;;;;;12.38;11.18;;;27.20;99.90;;;;;;5048268;28;20115;-85
2023/09/10 09:18:29;;;;;;;10.52;9.63;;;27.20;99.90;;;;;;5061274;28;20016;-84
2023/09/10 09:20:59;;;;;;;9.02;8.23;;;27.40;99.90;;;;;;5067834;28;20024;-82
2023/09/10 09:23:49;;;;;;;8.82;8.02;;;27.50;99.90;;;;;;5067924;28;20028;-82
2023/09/10 09:26:14;;;;;;;11.07;10.07;;;27.50;99.90;;;;;;5085109;28;20035;-83
2023/09/10 09:28:40;;;;;;;9.77;8.88;;;27.60;99.90;;;;;;5055999;28;20028;-83
2023/09/10 09:31:11;;;;;;;9.10;8.27;;;27.80;99.90;;;;;;5067041;28;20044;-83
2023/09/10 09:33:37;;;;;;;9.27;8.43;;;27.90;99.90;;;;;;5065667;28;20029;-82
2023/09/10 09:36:11;;;;;;;10.55;9.48;;;27.90;99.90;;;;;;5081376;28;20039;-82
2023/09/10 09:38:45;;;;;;;8.43;7.63;;;27.90;99.90;;;;;;5069642;28;20032;-82
2023/09/10 09:41:13;;;;;;;8.32;7.63;;;28.10;99.90;;;;;;5051222;28;20119;-83
2023/09/10 09:43:39;;;;;;;9.02;8.13;;;28.30;99.90;;;;;;5065806;28;20070;-84
2023/09/10 09:46:05;;;;;;;8.68;7.88;;;28.30;99.90;;;;;;5052169;28;20024;-83
2023/09/10 09:48:31;;;;;;;8.30;7.53;;;28.20;99.90;;;;;;5052823;28;20047;-83
2023/09/10 09:50:57;;;;;;;8.02;7.32;;;28.10;99.90;;;;;;5052319;28;20084;-83
2023/09/10 09:53:25;;;;;;;8.80;7.90;;;28.30;99.90;;;;;;5086337;28;20379;-83
2023/09/10 09:55:56;;;;;;;7.97;7.28;;;28.40;99.90;;;;;;5066390;28;20224;-84
2023/09/10 09:58:22;;;;;;;7.30;6.60;;;28.50;99.90;;;;;;5050900;28;20031;-85
2023/09/10 10:00:48;;;;;;;9.05;7.40;;;28.70;99.90;;;;;;5066501;28;20473;-82
2023/09/10 10:03:18;;;;;;;5.65;5.00;;;28.50;99.90;;;;;;5067355;28;20044;-83
2023/09/10 10:05:43;;;;;;;8.13;7.38;;;28.80;99.90;;;;;;5063907;28;20887;-88
2023/09/10 10:08:10;;;;;;;6.35;5.75;;;28.50;99.90;;;;;;5047871;28;20041;-83
2023/09/10 10:10:36;;;;;;;4.95;4.20;;;28.70;99.90;;;;;;5038049;28;20843;-82
2023/09/10 10:13:03;;;;;;;7.15;4.68;;;29.00;99.90;;;;;;5044928;28;20135;-82
2023/09/10 10:15:29;;;;;;;6.15;5.10;;;29.10;99.90;;;;;;5065164;28;20723;-83
2023/09/10 10:17:57;;;;;;;6.72;5.15;;;29.40;99.90;;;;;;5048404;28;20036;-87
2023/09/10 10:20:24;;;;;;;4.88;4.47;;;29.30;99.90;;;;;;5063808;28;20133;-84
2023/09/10 10:22:51;;;;;;;5.28;4.68;;;29.50;99.90;;;;;;5064507;28;20091;-87
2023/09/10 10:25:17;;;;;;;5.57;5.05;;;29.30;99.90;;;;;;5068000;28;20115;-84
2023/09/10 10:27:43;;;;;;;4.70;4.30;;;29.30;99.90;;;;;;5067384;28;20030;-82
2023/09/10 10:30:10;;;;;;;6.22;4.90;;;29.30;99.90;;;;;;5065779;28;20051;-82
2023/09/10 10:32:41;;;;;;;6.65;4.90;;;28.90;99.90;;;;;;5049570;28;20039;-83
2023/09/10 10:35:11;;;;;;;5.95;3.97;;;29.20;99.90;;;;;;5065236;28;20036;-86
2023/09/10 10:37:43;;;;;;;3.42;2.97;;;29.30;99.90;;;;;;5051190;28;20107;-81
2023/09/10 10:40:11;;;;;;;4.40;3.65;;;29.60;99.90;;;;;;5071068;28;20028;-84
2023/09/10 10:43:12;;;;;;;3.65;2.95;;;29.60;99.90;;;;;;5064795;28;20037;-83
2023/09/10 10:45:38;;;;;;;4.28;3.20;;;29.70;99.90;;;;;;5066418;28;20131;-84
2023/09/10 10:48:27;;;;;;;4.00;3.33;;;29.80;99.90;;;;;;5050773;28;20028;-84
2023/09/10 10:50:56;;;;;;;5.95;3.78;;;29.80;99.90;;;;;;5051737;28;20097;-83
2023/09/10 10:53:23;;;;;;;;;;;29.60;99.90;;;;;;5090170;28;20388;-82
2023/09/10 10:55:52;;;;;;;3.17;2.90;;;29.80;99.90;;;;;;5070086;28;19941;-85
2023/09/10 10:58:20;;;;;;;3.95;3.30;;;29.80;99.90;;;;;;5072169;28;20024;-84
2023/09/10 11:00:54;;;;;;;4.07;3.67;;;29.70;99.90;;;;;;5055434;28;20047;-84
2023/09/10 11:03:21;;;;;;;5.80;4.75;;;29.60;99.90;;;;;;5086820;28;20055;-82
2023/09/10 11:06:04;;;;;;;4.60;3.38;;;29.50;99.90;;;;;;5077377;28;20472;-83
2023/09/10 11:08:40;;;;;;;4.93;3.42;;;29.70;99.90;;;;;;5052615;28;20377;-82
2023/09/10 11:11:30;;;;;;;5.43;3.30;;;29.80;99.90;;;;;;5063718;28;20587;-83
2023/09/10 11:14:01;;;;;;;5.35;3.70;;;30.00;99.90;;;;;;5082928;28;20048;-84
2023/09/10 11:16:31;;;;;;;5.00;3.72;;;30.20;99.90;;;;;;5090615;28;20090;-83
2023/09/10 11:18:57;;;;;;;4.97;3.38;;;30.00;99.90;;;;;;5071405;28;20115;-84
2023/09/10 11:21:55;;;;;;;5.22;4.60;;;30.00;99.90;;;;;;5086311;28;20476;-82
2023/09/10 11:24:21;;;;;;;4.22;3.83;;;29.80;99.90;;;;;;5090529;28;20035;-87
2023/09/10 11:26:47;;;;;;;6.95;5.80;;;30.10;99.90;;;;;;5089297;28;20111;-86
2023/09/10 11:29:18;;;;;;;5.82;4.70;;;30.00;99.90;;;;;;5077333;28;20024;-83
2023/09/10 11:31:47;;;;;;;4.82;4.10;;;30.00;99.90;;;;;;5064575;28;20035;-82
2023/09/10 11:34:19;;;;;;;7.10;5.60;;;30.20;99.90;;;;;;5090475;28;20361;-84
2023/09/10 11:36:54;;;;;;;5.25;4.13;;;30.10;99.90;;;;;;5052120;28;20123;-87
2023/09/10 11:39:21;;;;;;;5.72;5.07;;;30.10;99.90;;;;;;5071530;28;20028;-84
2023/09/10 11:41:47;;;;;;;6.28;4.43;;;30.30;99.90;;;;;;5078112;28;20537;-83
2023/09/10 11:44:13;;;;;;;5.13;4.28;;;30.50;99.90;;;;;;5061400;28;20062;-82
2023/09/10 11:46:39;;;;;;;5.22;4.45;;;30.60;99.90;;;;;;5090084;28;20408;-88
2023/09/10 11:49:05;;;;;;;6.57;5.20;;;30.10;99.90;;;;;;5078488;28;20063;-83
2023/09/10 11:51:31;;;;;;;5.20;4.75;;;30.20;99.90;;;;;;5054812;28;20055;-85
2023/09/10 11:53:58;;;;;;;6.90;5.03;;;30.20;99.90;;;;;;5054580;28;20024;-87
2023/09/10 11:56:25;;;;;;;4.65;4.25;;;30.50;99.90;;;;;;5019093;28;21821;-83
2023/09/10 11:58:52;;;;;;;6.63;4.50;;;30.40;99.90;;;;;;5068135;28;20795;-84
2023/09/10 12:01:18;;;;;;;6.20;4.13;;;30.60;99.90;;;;;;5067507;28;20036;-83
2023/09/10 12:03:45;;;;;;;4.82;4.35;;;30.80;99.90;;;;;;5068675;28;20082;-84
2023/09/10 12:06:15;;;;;;;4.15;3.42;;;30.70;99.90;;;;;;5069225;28;20104;-87
2023/09/10 12:08:41;;;;;;;5.05;3.78;;;31.00;99.90;;;;;;5066641;28;20036;-82
2023/09/10 12:11:10;;;;;;;6.55;5.15;;;31.10;99.90;;;;;;5048341;28;20040;-84
2023/09/10 12:13:36;;;;;;;5.38;4.47;;;30.50;99.90;;;;;;5048623;28;20602;-84
2023/09/10 12:16:04;;;;;;;4.70;2.90;;;30.80;99.90;;;;;;5040234;28;20459;-88
2023/09/10 12:18:29;;;;;;;4.82;3.80;;;30.90;99.90;;;;;;5067761;28;20134;-84
2023/09/10 12:20:58;;;;;;;6.25;3.70;;;31.10;99.90;;;;;;5057169;28;21501;-83
2023/09/10 12:23:24;;;;;;;3.55;3.03;;;30.90;99.90;;;;;;5049815;28;20040;-83
2023/09/10 12:25:56;;;;;;;3.70;3.05;;;30.80;99.90;;;;;;5057882;28;20047;-84
2023/09/10 12:28:23;;;;;;;5.38;3.72;;;30.70;99.90;;;;;;5051063;28;20147;-85
2023/09/10 12:30:50;;;;;;;5.80;3.33;;;30.50;99.90;;;;;;5070753;28;20036;-83
2023/09/10 12:33:15;;;;;;;4.88;3.80;;;30.50;99.90;;;;;;5067937;28;20030;-84
2023/09/10 12:35:42;;;;;;;4.18;3.28;;;30.70;99.90;;;;;;5051586;28;20028;-83
2023/09/10 12:38:07;;;;;;;5.90;3.13;;;30.70;99.90;;;;;;5050686;28;20123;-88